sensor_id;sensor_type;location;lat;lon;timestamp;P1;durP1;ratioP1;P2;durP2;ratioP2
37891;SDS011;45797;47.466;9.486;2023-03-21T00:00:08;3.80;;;2.05;;
37891;SDS011;45797;47.466;9.486;2023-03-21T00:05:09;4.30;;;1.70;;
37891;SDS011;45797;47.466;9.486;2023-03-21T00:10:19;4.10;;;2.10;;
37891;SDS011;45797;47.466;9.486;2023-03-21T00:20:33;3.10;;;1.70;;
37891;SDS011;45797;47.466;9.486;2023-03-21T00:25:34;5.93;;;1.63;;
37891;SDS011;45797;47.466;9.486;2023-03-21T00:30:38;2.38;;;1.27;;
37891;SDS011;45797;47.466;9.486;2023-03-21T00:35:39;2.20;;;1.20;;
37891;SDS011;45797;47.466;9.486;2023-03-21T00:40:47;2.78;;;1.52;;
37891;SDS011;45797;47.466;9.486;2023-03-21T00:45:49;2.45;;;1.13;;
37891;SDS011;45797;47.466;9.486;2023-03-21T00:51:10;2.42;;;1.15;;
37891;SDS011;45797;47.466;9.486;2023-03-21T01:01:35;2.28;;;1.20;;
37891;SDS011;45797;47.466;9.486;2023-03-21T01:06:40;2.30;;;1.10;;
37891;SDS011;45797;47.466;9.486;2023-03-21T01:11:42;3.47;;;1.45;;
37891;SDS011;45797;47.466;9.486;2023-03-21T01:16:45;3.13;;;1.40;;
37891;SDS011;45797;47.466;9.486;2023-03-21T01:26:51;3.17;;;1.67;;
37891;SDS011;45797;47.466;9.486;2023-03-21T01:31:51;3.72;;;1.60;;
37891;SDS011;45797;47.466;9.486;2023-03-21T01:36:52;3.42;;;1.60;;
37891;SDS011;45797;47.466;9.486;2023-03-21T01:41:56;2.38;;;1.33;;
37891;SDS011;45797;47.466;9.486;2023-03-21T01:47:00;3.42;;;1.48;;
37891;SDS011;45797;47.466;9.486;2023-03-21T01:52:28;2.80;;;1.40;;
37891;SDS011;45797;47.466;9.486;2023-03-21T01:57:39;2.65;;;1.20;;
37891;SDS011;45797;47.466;9.486;2023-03-21T02:08:22;2.47;;;1.40;;
37891;SDS011;45797;47.466;9.486;2023-03-21T02:13:24;2.30;;;1.30;;
37891;SDS011;45797;47.466;9.486;2023-03-21T02:40:34;1.98;;;0.95;;
37891;SDS011;45797;47.466;9.486;2023-03-21T02:45:48;2.38;;;1.30;;
37891;SDS011;45797;47.466;9.486;2023-03-21T02:50:50;2.72;;;1.20;;
37891;SDS011;45797;47.466;9.486;2023-03-21T02:55:53;2.58;;;1.23;;
37891;SDS011;45797;47.466;9.486;2023-03-21T03:00:57;5.47;;;1.55;;
37891;SDS011;45797;47.466;9.486;2023-03-21T03:16:39;2.83;;;1.55;;
37891;SDS011;45797;47.466;9.486;2023-03-21T03:21:53;2.47;;;1.35;;
37891;SDS011;45797;47.466;9.486;2023-03-21T03:27:01;2.83;;;1.30;;
37891;SDS011;45797;47.466;9.486;2023-03-21T03:32:11;4.28;;;1.90;;
37891;SDS011;45797;47.466;9.486;2023-03-21T03:37:18;3.95;;;1.63;;
37891;SDS011;45797;47.466;9.486;2023-03-21T03:42:23;3.15;;;1.38;;
37891;SDS011;45797;47.466;9.486;2023-03-21T03:47:41;3.63;;;1.67;;
37891;SDS011;45797;47.466;9.486;2023-03-21T03:53:39;3.30;;;1.40;;
37891;SDS011;45797;47.466;9.486;2023-03-21T03:58:33;3.63;;;1.83;;
37891;SDS011;45797;47.466;9.486;2023-03-21T04:03:35;5.10;;;1.80;;
37891;SDS011;45797;47.466;9.486;2023-03-21T04:08:47;4.05;;;1.90;;
37891;SDS011;45797;47.466;9.486;2023-03-21T04:13:48;4.90;;;1.67;;
37891;SDS011;45797;47.466;9.486;2023-03-21T04:18:56;4.20;;;1.85;;
37891;SDS011;45797;47.466;9.486;2023-03-21T04:23:57;3.85;;;2.10;;
37891;SDS011;45797;47.466;9.486;2023-03-21T04:29:01;5.55;;;2.13;;
37891;SDS011;45797;47.466;9.486;2023-03-21T04:40:01;4.28;;;1.75;;
37891;SDS011;45797;47.466;9.486;2023-03-21T04:50:32;4.20;;;1.80;;
37891;SDS011;45797;47.466;9.486;2023-03-21T04:55:33;4.13;;;2.05;;
37891;SDS011;45797;47.466;9.486;2023-03-21T05:00:35;4.75;;;2.17;;
37891;SDS011;45797;47.466;9.486;2023-03-21T05:05:38;4.10;;;2.08;;
37891;SDS011;45797;47.466;9.486;2023-03-21T05:10:38;4.30;;;2.10;;
37891;SDS011;45797;47.466;9.486;2023-03-21T05:15:50;4.22;;;2.10;;
37891;SDS011;45797;47.466;9.486;2023-03-21T05:26:04;3.17;;;1.73;;
37891;SDS011;45797;47.466;9.486;2023-03-21T05:31:31;6.00;;;2.40;;
37891;SDS011;45797;47.466;9.486;2023-03-21T05:36:40;3.88;;;1.90;;
37891;SDS011;45797;47.466;9.486;2023-03-21T05:41:52;4.18;;;2.17;;
37891;SDS011;45797;47.466;9.486;2023-03-21T05:46:53;5.18;;;2.33;;
37891;SDS011;45797;47.466;9.486;2023-03-21T05:51:59;5.30;;;1.95;;
37891;SDS011;45797;47.466;9.486;2023-03-21T05:56:59;3.60;;;2.00;;
37891;SDS011;45797;47.466;9.486;2023-03-21T06:02:27;4.72;;;2.45;;
37891;SDS011;45797;47.466;9.486;2023-03-21T06:07:30;5.25;;;2.63;;
37891;SDS011;45797;47.466;9.486;2023-03-21T06:12:32;4.25;;;2.28;;
37891;SDS011;45797;47.466;9.486;2023-03-21T06:17:48;8.38;;;3.38;;
37891;SDS011;45797;47.466;9.486;2023-03-21T06:22:50;6.22;;;3.03;;
37891;SDS011;45797;47.466;9.486;2023-03-21T06:27:51;5.85;;;2.90;;
37891;SDS011;45797;47.466;9.486;2023-03-21T06:38:03;5.03;;;2.75;;
37891;SDS011;45797;47.466;9.486;2023-03-21T06:43:16;5.57;;;2.83;;
37891;SDS011;45797;47.466;9.486;2023-03-21T06:53:24;3.80;;;2.20;;
37891;SDS011;45797;47.466;9.486;2023-03-21T07:04:10;4.30;;;2.50;;
37891;SDS011;45797;47.466;9.486;2023-03-21T07:09:12;5.13;;;2.17;;
37891;SDS011;45797;47.466;9.486;2023-03-21T07:14:12;6.90;;;2.85;;
37891;SDS011;45797;47.466;9.486;2023-03-21T07:19:14;4.43;;;2.33;;
37891;SDS011;45797;47.466;9.486;2023-03-21T07:29:42;6.70;;;3.45;;
37891;SDS011;45797;47.466;9.486;2023-03-21T07:34:43;6.53;;;3.08;;
37891;SDS011;45797;47.466;9.486;2023-03-21T07:39:43;7.38;;;3.33;;
37891;SDS011;45797;47.466;9.486;2023-03-21T07:44:51;8.32;;;2.92;;
37891;SDS011;45797;47.466;9.486;2023-03-21T07:49:55;6.25;;;3.25;;
37891;SDS011;45797;47.466;9.486;2023-03-21T07:54:56;5.80;;;3.22;;
37891;SDS011;45797;47.466;9.486;2023-03-21T07:59:57;5.20;;;3.13;;
37891;SDS011;45797;47.466;9.486;2023-03-21T08:04:57;5.28;;;3.05;;
37891;SDS011;45797;47.466;9.486;2023-03-21T08:09:58;5.82;;;3.30;;
37891;SDS011;45797;47.466;9.486;2023-03-21T08:25:09;7.35;;;3.38;;
37891;SDS011;45797;47.466;9.486;2023-03-21T08:30:14;5.25;;;2.88;;
37891;SDS011;45797;47.466;9.486;2023-03-21T08:35:17;5.22;;;2.78;;
37891;SDS011;45797;47.466;9.486;2023-03-21T08:40:21;5.90;;;3.20;;
37891;SDS011;45797;47.466;9.486;2023-03-21T08:45:22;7.20;;;2.95;;
37891;SDS011;45797;47.466;9.486;2023-03-21T08:50:25;5.88;;;2.70;;
37891;SDS011;45797;47.466;9.486;2023-03-21T09:00:35;5.18;;;3.30;;
37891;SDS011;45797;47.466;9.486;2023-03-21T09:05:38;5.53;;;3.13;;
37891;SDS011;45797;47.466;9.486;2023-03-21T09:16:00;6.32;;;3.20;;
37891;SDS011;45797;47.466;9.486;2023-03-21T09:26:16;5.38;;;3.33;;
37891;SDS011;45797;47.466;9.486;2023-03-21T09:31:23;5.35;;;2.85;;
37891;SDS011;45797;47.466;9.486;2023-03-21T09:36:24;7.05;;;2.92;;
37891;SDS011;45797;47.466;9.486;2023-03-21T09:46:49;6.25;;;3.15;;
37891;SDS011;45797;47.466;9.486;2023-03-21T09:51:57;5.25;;;3.22;;
37891;SDS011;45797;47.466;9.486;2023-03-21T09:57:03;7.68;;;3.55;;
37891;SDS011;45797;47.466;9.486;2023-03-21T10:12:57;5.57;;;3.17;;
37891;SDS011;45797;47.466;9.486;2023-03-21T10:18:04;8.82;;;3.60;;
37891;SDS011;45797;47.466;9.486;2023-03-21T10:23:11;6.43;;;3.55;;
37891;SDS011;45797;47.466;9.486;2023-03-21T10:28:19;6.22;;;3.70;;
37891;SDS011;45797;47.466;9.486;2023-03-21T10:33:26;7.78;;;3.33;;
37891;SDS011;45797;47.466;9.486;2023-03-21T10:38:31;5.57;;;3.40;;
37891;SDS011;45797;47.466;9.486;2023-03-21T10:43:39;6.22;;;3.42;;
37891;SDS011;45797;47.466;9.486;2023-03-21T10:48:41;7.28;;;3.25;;
37891;SDS011;45797;47.466;9.486;2023-03-21T10:53:57;5.95;;;3.10;;
37891;SDS011;45797;47.466;9.486;2023-03-21T10:59:00;5.93;;;3.33;;
37891;SDS011;45797;47.466;9.486;2023-03-21T11:04:08;7.35;;;4.05;;
37891;SDS011;45797;47.466;9.486;2023-03-21T11:09:15;6.72;;;3.30;;
37891;SDS011;45797;47.466;9.486;2023-03-21T11:14:24;6.45;;;3.90;;
37891;SDS011;45797;47.466;9.486;2023-03-21T11:19:34;6.22;;;3.58;;
37891;SDS011;45797;47.466;9.486;2023-03-21T11:24:47;5.97;;;3.28;;
37891;SDS011;45797;47.466;9.486;2023-03-21T11:34:59;6.05;;;3.25;;
37891;SDS011;45797;47.466;9.486;2023-03-21T11:40:17;5.95;;;3.17;;
37891;SDS011;45797;47.466;9.486;2023-03-21T11:45:20;5.78;;;3.55;;
37891;SDS011;45797;47.466;9.486;2023-03-21T11:50:30;7.03;;;3.60;;
37891;SDS011;45797;47.466;9.486;2023-03-21T11:55:50;6.88;;;3.80;;
37891;SDS011;45797;47.466;9.486;2023-03-21T12:01:25;6.43;;;3.75;;
37891;SDS011;45797;47.466;9.486;2023-03-21T12:17:29;5.28;;;3.42;;
37891;SDS011;45797;47.466;9.486;2023-03-21T12:44:22;5.50;;;3.20;;
37891;SDS011;45797;47.466;9.486;2023-03-21T12:49:31;6.40;;;3.60;;
37891;SDS011;45797;47.466;9.486;2023-03-21T13:10:52;6.32;;;3.40;;
37891;SDS011;45797;47.466;9.486;2023-03-21T13:27:03;5.50;;;3.50;;
37891;SDS011;45797;47.466;9.486;2023-03-21T13:42:54;7.25;;;3.67;;
37891;SDS011;45797;47.466;9.486;2023-03-21T13:48:03;7.30;;;4.25;;
37891;SDS011;45797;47.466;9.486;2023-03-21T13:53:23;7.82;;;3.80;;
37891;SDS011;45797;47.466;9.486;2023-03-21T14:04:03;8.57;;;4.00;;
37891;SDS011;45797;47.466;9.486;2023-03-21T14:09:13;6.57;;;3.85;;
37891;SDS011;45797;47.466;9.486;2023-03-21T14:14:48;6.55;;;3.70;;
37891;SDS011;45797;47.466;9.486;2023-03-21T14:19:59;5.85;;;3.67;;
37891;SDS011;45797;47.466;9.486;2023-03-21T14:25:02;7.00;;;3.53;;
37891;SDS011;45797;47.466;9.486;2023-03-21T14:30:04;7.93;;;3.97;;
37891;SDS011;45797;47.466;9.486;2023-03-21T14:40:23;6.90;;;3.53;;
37891;SDS011;45797;47.466;9.486;2023-03-21T14:45:26;8.25;;;4.10;;
37891;SDS011;45797;47.466;9.486;2023-03-21T15:01:02;9.57;;;4.43;;
37891;SDS011;45797;47.466;9.486;2023-03-21T15:06:05;7.85;;;4.15;;
37891;SDS011;45797;47.466;9.486;2023-03-21T15:11:12;6.20;;;3.58;;
37891;SDS011;45797;47.466;9.486;2023-03-21T15:16:13;6.72;;;3.78;;
37891;SDS011;45797;47.466;9.486;2023-03-21T15:26:38;7.53;;;3.67;;
37891;SDS011;45797;47.466;9.486;2023-03-21T15:31:45;8.40;;;3.30;;
37891;SDS011;45797;47.466;9.486;2023-03-21T15:48:10;5.88;;;3.63;;
37891;SDS011;45797;47.466;9.486;2023-03-21T15:53:15;6.32;;;3.42;;
37891;SDS011;45797;47.466;9.486;2023-03-21T15:58:23;7.72;;;4.25;;
37891;SDS011;45797;47.466;9.486;2023-03-21T16:03:34;8.07;;;4.05;;
37891;SDS011;45797;47.466;9.486;2023-03-21T16:14:07;5.55;;;3.42;;
37891;SDS011;45797;47.466;9.486;2023-03-21T16:19:10;6.88;;;3.70;;
37891;SDS011;45797;47.466;9.486;2023-03-21T16:24:20;6.25;;;3.55;;
37891;SDS011;45797;47.466;9.486;2023-03-21T16:29:22;7.35;;;3.70;;
37891;SDS011;45797;47.466;9.486;2023-03-21T16:34:24;8.65;;;4.00;;
37891;SDS011;45797;47.466;9.486;2023-03-21T16:39:26;6.28;;;3.60;;
37891;SDS011;45797;47.466;9.486;2023-03-21T16:44:28;6.47;;;3.75;;
37891;SDS011;45797;47.466;9.486;2023-03-21T16:49:30;7.60;;;4.03;;
37891;SDS011;45797;47.466;9.486;2023-03-21T16:54:41;5.50;;;2.90;;
37891;SDS011;45797;47.466;9.486;2023-03-21T16:59:51;8.95;;;3.35;;
37891;SDS011;45797;47.466;9.486;2023-03-21T17:15:21;4.90;;;1.90;;
37891;SDS011;45797;47.466;9.486;2023-03-21T17:20:25;6.07;;;2.38;;
37891;SDS011;45797;47.466;9.486;2023-03-21T17:25:42;4.22;;;1.85;;
37891;SDS011;45797;47.466;9.486;2023-03-21T17:30:43;3.17;;;1.58;;
37891;SDS011;45797;47.466;9.486;2023-03-21T17:35:44;4.30;;;1.88;;
37891;SDS011;45797;47.466;9.486;2023-03-21T17:40:45;6.28;;;3.13;;
37891;SDS011;45797;47.466;9.486;2023-03-21T17:51:05;5.35;;;2.10;;
37891;SDS011;45797;47.466;9.486;2023-03-21T17:56:16;5.45;;;2.63;;
37891;SDS011;45797;47.466;9.486;2023-03-21T18:01:22;4.28;;;2.20;;
37891;SDS011;45797;47.466;9.486;2023-03-21T18:06:25;3.20;;;1.80;;
37891;SDS011;45797;47.466;9.486;2023-03-21T18:11:25;5.38;;;1.85;;
37891;SDS011;45797;47.466;9.486;2023-03-21T18:16:26;5.28;;;2.00;;
37891;SDS011;45797;47.466;9.486;2023-03-21T18:21:28;5.05;;;1.70;;
37891;SDS011;45797;47.466;9.486;2023-03-21T18:31:33;2.45;;;1.30;;
37891;SDS011;45797;47.466;9.486;2023-03-21T18:36:34;4.70;;;1.55;;
37891;SDS011;45797;47.466;9.486;2023-03-21T18:46:58;4.05;;;1.77;;
37891;SDS011;45797;47.466;9.486;2023-03-21T18:51:58;3.00;;;1.50;;
37891;SDS011;45797;47.466;9.486;2023-03-21T18:57:00;2.95;;;1.20;;
37891;SDS011;45797;47.466;9.486;2023-03-21T19:02:02;2.80;;;1.33;;
37891;SDS011;45797;47.466;9.486;2023-03-21T19:07:02;2.45;;;1.20;;
37891;SDS011;45797;47.466;9.486;2023-03-21T19:17:08;2.53;;;1.20;;
37891;SDS011;45797;47.466;9.486;2023-03-21T19:22:09;2.28;;;1.23;;
37891;SDS011;45797;47.466;9.486;2023-03-21T19:27:11;4.22;;;1.30;;
37891;SDS011;45797;47.466;9.486;2023-03-21T19:32:14;3.97;;;1.73;;
37891;SDS011;45797;47.466;9.486;2023-03-21T19:47:46;3.47;;;1.80;;
37891;SDS011;45797;47.466;9.486;2023-03-21T19:52:48;3.45;;;1.58;;
37891;SDS011;45797;47.466;9.486;2023-03-21T20:03:01;2.47;;;1.25;;
37891;SDS011;45797;47.466;9.486;2023-03-21T20:13:21;3.35;;;1.00;;
37891;SDS011;45797;47.466;9.486;2023-03-21T20:18:21;3.13;;;1.00;;
37891;SDS011;45797;47.466;9.486;2023-03-21T20:23:25;2.42;;;1.00;;
37891;SDS011;45797;47.466;9.486;2023-03-21T20:28:26;4.38;;;1.58;;
37891;SDS011;45797;47.466;9.486;2023-03-21T20:33:27;3.10;;;1.35;;
37891;SDS011;45797;47.466;9.486;2023-03-21T20:38:30;3.13;;;1.17;;
37891;SDS011;45797;47.466;9.486;2023-03-21T20:43:33;2.38;;;1.13;;
37891;SDS011;45797;47.466;9.486;2023-03-21T20:48:34;2.58;;;1.13;;
37891;SDS011;45797;47.466;9.486;2023-03-21T20:58:40;2.92;;;1.33;;
37891;SDS011;45797;47.466;9.486;2023-03-21T21:03:41;2.90;;;1.20;;
37891;SDS011;45797;47.466;9.486;2023-03-21T21:08:43;2.83;;;1.48;;
37891;SDS011;45797;47.466;9.486;2023-03-21T21:13:47;1.88;;;0.90;;
37891;SDS011;45797;47.466;9.486;2023-03-21T21:18:47;2.58;;;1.20;;
37891;SDS011;45797;47.466;9.486;2023-03-21T21:23:49;2.42;;;1.10;;
37891;SDS011;45797;47.466;9.486;2023-03-21T21:28:56;2.78;;;1.10;;
37891;SDS011;45797;47.466;9.486;2023-03-21T21:34:09;2.75;;;0.90;;
37891;SDS011;45797;47.466;9.486;2023-03-21T21:39:11;2.33;;;0.90;;
37891;SDS011;45797;47.466;9.486;2023-03-21T21:44:16;2.53;;;0.93;;
37891;SDS011;45797;47.466;9.486;2023-03-21T21:54:21;1.83;;;0.80;;
37891;SDS011;45797;47.466;9.486;2023-03-21T21:59:22;3.33;;;1.23;;
37891;SDS011;45797;47.466;9.486;2023-03-21T22:04:25;2.58;;;1.10;;
37891;SDS011;45797;47.466;9.486;2023-03-21T22:14:31;2.35;;;1.08;;
37891;SDS011;45797;47.466;9.486;2023-03-21T22:19:31;3.40;;;1.27;;
37891;SDS011;45797;47.466;9.486;2023-03-21T22:24:33;2.65;;;1.25;;
37891;SDS011;45797;47.466;9.486;2023-03-21T22:29:36;3.45;;;1.33;;
37891;SDS011;45797;47.466;9.486;2023-03-21T22:39:42;2.90;;;1.20;;
37891;SDS011;45797;47.466;9.486;2023-03-21T22:44:42;3.40;;;1.20;;
37891;SDS011;45797;47.466;9.486;2023-03-21T22:49:42;3.35;;;1.17;;
37891;SDS011;45797;47.466;9.486;2023-03-21T22:54:51;2.60;;;1.20;;
37891;SDS011;45797;47.466;9.486;2023-03-21T23:00:02;6.45;;;1.30;;
37891;SDS011;45797;47.466;9.486;2023-03-21T23:10:16;2.50;;;1.10;;
37891;SDS011;45797;47.466;9.486;2023-03-21T23:15:17;2.90;;;1.17;;
37891;SDS011;45797;47.466;9.486;2023-03-21T23:25:45;4.35;;;1.08;;
37891;SDS011;45797;47.466;9.486;2023-03-21T23:30:45;2.60;;;1.23;;
37891;SDS011;45797;47.466;9.486;2023-03-21T23:35:45;3.13;;;1.38;;
37891;SDS011;45797;47.466;9.486;2023-03-21T23:40:46;2.40;;;1.10;;
37891;SDS011;45797;47.466;9.486;2023-03-21T23:45:48;2.72;;;1.30;;
37891;SDS011;45797;47.466;9.486;2023-03-21T23:50:54;2.53;;;1.17;;
37891;SDS011;45797;47.466;9.486;2023-03-21T23:55:55;3.30;;;1.13;;
